sensor_id;sensor_type;location;lat;lon;timestamp;temperature;humidity
13328;DHT22;6733;51.044;3.746;2023-02-15T00:01:19;5.80;99.90
13328;DHT22;6733;51.044;3.746;2023-02-15T00:03:48;5.80;99.90
13328;DHT22;6733;51.044;3.746;2023-02-15T00:06:14;5.80;99.90
13328;DHT22;6733;51.044;3.746;2023-02-15T00:08:41;5.70;99.90
13328;DHT22;6733;51.044;3.746;2023-02-15T00:11:11;5.70;99.90
13328;DHT22;6733;51.044;3.746;2023-02-15T00:13:38;5.70;99.90
13328;DHT22;6733;51.044;3.746;2023-02-15T00:16:09;5.60;99.90
13328;DHT22;6733;51.044;3.746;2023-02-15T00:18:36;5.60;99.90
13328;DHT22;6733;51.044;3.746;2023-02-15T00:21:07;5.60;99.90
13328;DHT22;6733;51.044;3.746;2023-02-15T00:23:35;5.60;99.90
13328;DHT22;6733;51.044;3.746;2023-02-15T00:28:31;5.60;99.90
13328;DHT22;6733;51.044;3.746;2023-02-15T00:31:09;5.60;99.90
13328;DHT22;6733;51.044;3.746;2023-02-15T00:33:36;5.50;99.90
13328;DHT22;6733;51.044;3.746;2023-02-15T00:36:03;5.50;99.90
13328;DHT22;6733;51.044;3.746;2023-02-15T00:38:30;5.50;99.90
13328;DHT22;6733;51.044;3.746;2023-02-15T00:40:58;5.50;99.90
13328;DHT22;6733;51.044;3.746;2023-02-15T00:43:25;5.50;99.90
13328;DHT22;6733;51.044;3.746;2023-02-15T00:45:52;5.50;99.90
13328;DHT22;6733;51.044;3.746;2023-02-15T00:48:19;5.40;99.90
13328;DHT22;6733;51.044;3.746;2023-02-15T00:50:57;5.40;99.90
13328;DHT22;6733;51.044;3.746;2023-02-15T00:53:25;5.40;99.90
13328;DHT22;6733;51.044;3.746;2023-02-15T00:55:52;5.40;99.90
13328;DHT22;6733;51.044;3.746;2023-02-15T00:58:18;5.30;99.90
13328;DHT22;6733;51.044;3.746;2023-02-15T01:00:46;5.30;99.90
13328;DHT22;6733;51.044;3.746;2023-02-15T01:03:14;5.30;99.90
13328;DHT22;6733;51.044;3.746;2023-02-15T01:05:41;5.30;99.90
13328;DHT22;6733;51.044;3.746;2023-02-15T01:08:07;5.30;99.90
13328;DHT22;6733;51.044;3.746;2023-02-15T01:10:34;5.20;99.90
13328;DHT22;6733;51.044;3.746;2023-02-15T01:13:01;5.20;99.90
13328;DHT22;6733;51.044;3.746;2023-02-15T01:15:28;5.20;99.90
13328;DHT22;6733;51.044;3.746;2023-02-15T01:17:54;5.20;99.90
13328;DHT22;6733;51.044;3.746;2023-02-15T01:20:23;5.20;99.90
13328;DHT22;6733;51.044;3.746;2023-02-15T01:22:50;5.10;99.90
13328;DHT22;6733;51.044;3.746;2023-02-15T01:25:17;5.10;99.90
13328;DHT22;6733;51.044;3.746;2023-02-15T01:27:44;5.10;99.90
13328;DHT22;6733;51.044;3.746;2023-02-15T01:30:11;5.10;99.90
13328;DHT22;6733;51.044;3.746;2023-02-15T01:32:38;5.00;99.90
13328;DHT22;6733;51.044;3.746;2023-02-15T01:35:04;5.00;99.90
13328;DHT22;6733;51.044;3.746;2023-02-15T01:37:31;5.00;99.90
13328;DHT22;6733;51.044;3.746;2023-02-15T01:39:58;5.00;99.90
13328;DHT22;6733;51.044;3.746;2023-02-15T01:42:27;5.00;99.90
13328;DHT22;6733;51.044;3.746;2023-02-15T01:44:56;5.00;99.90
13328;DHT22;6733;51.044;3.746;2023-02-15T01:49:56;5.00;99.90
13328;DHT22;6733;51.044;3.746;2023-02-15T01:52:23;5.00;99.90
13328;DHT22;6733;51.044;3.746;2023-02-15T01:54:50;5.00;99.90
13328;DHT22;6733;51.044;3.746;2023-02-15T01:57:22;4.90;99.90
13328;DHT22;6733;51.044;3.746;2023-02-15T01:59:53;4.90;99.90
13328;DHT22;6733;51.044;3.746;2023-02-15T02:02:20;4.90;99.90
13328;DHT22;6733;51.044;3.746;2023-02-15T02:04:57;4.90;99.90
13328;DHT22;6733;51.044;3.746;2023-02-15T02:07:27;4.90;99.90
13328;DHT22;6733;51.044;3.746;2023-02-15T02:09:55;4.80;99.90
13328;DHT22;6733;51.044;3.746;2023-02-15T02:12:22;4.80;99.90
13328;DHT22;6733;51.044;3.746;2023-02-15T02:14:49;4.70;99.90
13328;DHT22;6733;51.044;3.746;2023-02-15T02:22:55;4.70;99.90
13328;DHT22;6733;51.044;3.746;2023-02-15T02:28:28;4.70;99.90
13328;DHT22;6733;51.044;3.746;2023-02-15T02:44:57;4.50;99.90
13328;DHT22;6733;51.044;3.746;2023-02-15T02:50:17;4.50;99.90
13328;DHT22;6733;51.044;3.746;2023-02-15T02:52:44;4.50;99.90
13328;DHT22;6733;51.044;3.746;2023-02-15T02:55:34;4.40;99.90
13328;DHT22;6733;51.044;3.746;2023-02-15T03:03:43;4.40;99.90
13328;DHT22;6733;51.044;3.746;2023-02-15T03:06:21;4.30;99.90
13328;DHT22;6733;51.044;3.746;2023-02-15T03:08:56;4.30;99.90
13328;DHT22;6733;51.044;3.746;2023-02-15T03:11:24;4.30;99.90
13328;DHT22;6733;51.044;3.746;2023-02-15T03:13:50;4.30;99.90
13328;DHT22;6733;51.044;3.746;2023-02-15T03:16:17;4.30;99.90
13328;DHT22;6733;51.044;3.746;2023-02-15T03:18:55;4.30;99.90
13328;DHT22;6733;51.044;3.746;2023-02-15T03:21:49;4.20;99.90
13328;DHT22;6733;51.044;3.746;2023-02-15T03:27:26;4.20;99.90
13328;DHT22;6733;51.044;3.746;2023-02-15T03:29:58;4.20;99.90
13328;DHT22;6733;51.044;3.746;2023-02-15T03:32:26;4.20;99.90
13328;DHT22;6733;51.044;3.746;2023-02-15T03:34:54;4.20;99.90
13328;DHT22;6733;51.044;3.746;2023-02-15T03:42:59;4.20;99.90
13328;DHT22;6733;51.044;3.746;2023-02-15T03:45:30;4.10;99.90
13328;DHT22;6733;51.044;3.746;2023-02-15T03:47:58;4.10;99.90
13328;DHT22;6733;51.044;3.746;2023-02-15T03:50:31;4.10;99.90
13328;DHT22;6733;51.044;3.746;2023-02-15T03:53:18;4.10;99.90
13328;DHT22;6733;51.044;3.746;2023-02-15T03:55:48;4.10;99.90
13328;DHT22;6733;51.044;3.746;2023-02-15T03:58:14;4.10;99.90
13328;DHT22;6733;51.044;3.746;2023-02-15T04:01:03;4.00;99.90
13328;DHT22;6733;51.044;3.746;2023-02-15T04:03:51;4.00;99.90
13328;DHT22;6733;51.044;3.746;2023-02-15T04:06:19;4.00;99.90
13328;DHT22;6733;51.044;3.746;2023-02-15T04:08:45;4.00;99.90
13328;DHT22;6733;51.044;3.746;2023-02-15T04:11:30;4.00;99.90
13328;DHT22;6733;51.044;3.746;2023-02-15T04:13:56;4.00;99.90
13328;DHT22;6733;51.044;3.746;2023-02-15T04:16:24;4.00;99.90
13328;DHT22;6733;51.044;3.746;2023-02-15T04:18:50;4.00;99.90
13328;DHT22;6733;51.044;3.746;2023-02-15T04:21:34;4.00;99.90
13328;DHT22;6733;51.044;3.746;2023-02-15T04:24:19;4.00;99.90
13328;DHT22;6733;51.044;3.746;2023-02-15T04:27:05;4.00;99.90
13328;DHT22;6733;51.044;3.746;2023-02-15T04:29:32;4.00;99.90
13328;DHT22;6733;51.044;3.746;2023-02-15T04:32:00;3.90;99.90
13328;DHT22;6733;51.044;3.746;2023-02-15T04:34:26;3.90;99.90
13328;DHT22;6733;51.044;3.746;2023-02-15T04:36:52;3.90;99.90
13328;DHT22;6733;51.044;3.746;2023-02-15T04:39:19;3.90;99.90
13328;DHT22;6733;51.044;3.746;2023-02-15T04:41:45;3.90;99.90
13328;DHT22;6733;51.044;3.746;2023-02-15T04:44:11;3.80;99.90
13328;DHT22;6733;51.044;3.746;2023-02-15T04:46:37;3.80;99.90
13328;DHT22;6733;51.044;3.746;2023-02-15T04:49:04;3.80;99.90
13328;DHT22;6733;51.044;3.746;2023-02-15T04:51:30;3.80;99.90
13328;DHT22;6733;51.044;3.746;2023-02-15T04:53:56;3.80;99.90
13328;DHT22;6733;51.044;3.746;2023-02-15T04:56:22;3.70;99.90
13328;DHT22;6733;51.044;3.746;2023-02-15T04:58:49;3.80;99.90
13328;DHT22;6733;51.044;3.746;2023-02-15T05:01:15;3.80;99.90
13328;DHT22;6733;51.044;3.746;2023-02-15T05:03:41;3.70;99.90
13328;DHT22;6733;51.044;3.746;2023-02-15T05:06:07;3.80;99.90
13328;DHT22;6733;51.044;3.746;2023-02-15T05:08:33;3.80;99.90
13328;DHT22;6733;51.044;3.746;2023-02-15T05:10:59;3.80;99.90
13328;DHT22;6733;51.044;3.746;2023-02-15T05:13:25;3.80;99.90
13328;DHT22;6733;51.044;3.746;2023-02-15T05:15:53;3.80;99.90
13328;DHT22;6733;51.044;3.746;2023-02-15T05:18:20;3.80;99.90
13328;DHT22;6733;51.044;3.746;2023-02-15T05:20:47;3.80;99.90
13328;DHT22;6733;51.044;3.746;2023-02-15T05:23:14;3.80;99.90
13328;DHT22;6733;51.044;3.746;2023-02-15T05:25:40;3.70;99.90
13328;DHT22;6733;51.044;3.746;2023-02-15T05:28:27;3.70;99.90
13328;DHT22;6733;51.044;3.746;2023-02-15T05:33:33;3.70;99.90
13328;DHT22;6733;51.044;3.746;2023-02-15T05:36:00;3.70;99.90
13328;DHT22;6733;51.044;3.746;2023-02-15T05:38:26;3.70;99.90
13328;DHT22;6733;51.044;3.746;2023-02-15T05:40:53;3.60;99.90
13328;DHT22;6733;51.044;3.746;2023-02-15T05:43:19;3.60;99.90
13328;DHT22;6733;51.044;3.746;2023-02-15T05:45:51;3.60;99.90
13328;DHT22;6733;51.044;3.746;2023-02-15T05:48:18;3.70;99.90
13328;DHT22;6733;51.044;3.746;2023-02-15T05:50:44;3.60;99.90
13328;DHT22;6733;51.044;3.746;2023-02-15T05:53:11;3.60;99.90
13328;DHT22;6733;51.044;3.746;2023-02-15T05:55:38;3.60;99.90
13328;DHT22;6733;51.044;3.746;2023-02-15T05:58:05;3.60;99.90
13328;DHT22;6733;51.044;3.746;2023-02-15T06:00:31;3.60;99.90
13328;DHT22;6733;51.044;3.746;2023-02-15T06:02:57;3.60;99.90
13328;DHT22;6733;51.044;3.746;2023-02-15T06:05:23;3.60;99.90
13328;DHT22;6733;51.044;3.746;2023-02-15T06:07:49;3.60;99.90
13328;DHT22;6733;51.044;3.746;2023-02-15T06:10:16;3.60;99.90
13328;DHT22;6733;51.044;3.746;2023-02-15T06:12:44;3.60;99.90
13328;DHT22;6733;51.044;3.746;2023-02-15T06:15:10;3.60;99.90
13328;DHT22;6733;51.044;3.746;2023-02-15T06:17:36;3.60;99.90
13328;DHT22;6733;51.044;3.746;2023-02-15T06:20:03;3.60;99.90
13328;DHT22;6733;51.044;3.746;2023-02-15T06:22:29;3.60;99.90
13328;DHT22;6733;51.044;3.746;2023-02-15T06:24:56;3.60;99.90
13328;DHT22;6733;51.044;3.746;2023-02-15T06:27:22;3.60;99.90
13328;DHT22;6733;51.044;3.746;2023-02-15T06:29:48;3.60;99.90
13328;DHT22;6733;51.044;3.746;2023-02-15T06:32:14;3.60;99.90
13328;DHT22;6733;51.044;3.746;2023-02-15T06:34:40;3.60;99.90
13328;DHT22;6733;51.044;3.746;2023-02-15T06:37:07;3.60;99.90
13328;DHT22;6733;51.044;3.746;2023-02-15T06:39:34;3.60;99.90
13328;DHT22;6733;51.044;3.746;2023-02-15T06:42:00;3.60;99.90
13328;DHT22;6733;51.044;3.746;2023-02-15T06:44:26;3.60;99.90
13328;DHT22;6733;51.044;3.746;2023-02-15T06:46:53;3.60;99.90
13328;DHT22;6733;51.044;3.746;2023-02-15T06:49:19;3.60;99.90
13328;DHT22;6733;51.044;3.746;2023-02-15T06:51:45;3.60;99.90
13328;DHT22;6733;51.044;3.746;2023-02-15T06:54:11;3.60;99.90
13328;DHT22;6733;51.044;3.746;2023-02-15T06:56:37;3.70;99.90
13328;DHT22;6733;51.044;3.746;2023-02-15T06:59:04;3.60;99.90
13328;DHT22;6733;51.044;3.746;2023-02-15T07:01:30;3.70;99.90
13328;DHT22;6733;51.044;3.746;2023-02-15T07:03:56;3.70;99.90
13328;DHT22;6733;51.044;3.746;2023-02-15T07:06:22;3.60;99.90
13328;DHT22;6733;51.044;3.746;2023-02-15T07:08:49;3.70;99.90
13328;DHT22;6733;51.044;3.746;2023-02-15T07:11:15;3.70;99.90
13328;DHT22;6733;51.044;3.746;2023-02-15T07:13:59;3.70;99.90
13328;DHT22;6733;51.044;3.746;2023-02-15T07:16:25;3.70;99.90
13328;DHT22;6733;51.044;3.746;2023-02-15T07:18:52;3.70;99.90
13328;DHT22;6733;51.044;3.746;2023-02-15T07:21:18;3.80;99.90
13328;DHT22;6733;51.044;3.746;2023-02-15T07:23:44;3.80;99.90
13328;DHT22;6733;51.044;3.746;2023-02-15T07:26:10;3.90;99.90
13328;DHT22;6733;51.044;3.746;2023-02-15T07:28:36;3.90;99.90
13328;DHT22;6733;51.044;3.746;2023-02-15T07:31:03;3.90;99.90
13328;DHT22;6733;51.044;3.746;2023-02-15T07:33:33;4.00;99.90
13328;DHT22;6733;51.044;3.746;2023-02-15T07:36:02;4.00;99.90
13328;DHT22;6733;51.044;3.746;2023-02-15T07:38:36;4.00;99.90
13328;DHT22;6733;51.044;3.746;2023-02-15T07:41:06;4.10;99.90
13328;DHT22;6733;51.044;3.746;2023-02-15T07:43:37;4.10;99.90
13328;DHT22;6733;51.044;3.746;2023-02-15T07:46:06;4.10;99.90
13328;DHT22;6733;51.044;3.746;2023-02-15T07:48:34;4.20;99.90
13328;DHT22;6733;51.044;3.746;2023-02-15T07:51:01;4.20;99.90
13328;DHT22;6733;51.044;3.746;2023-02-15T07:53:28;4.30;99.90
13328;DHT22;6733;51.044;3.746;2023-02-15T07:55:57;4.30;99.90
13328;DHT22;6733;51.044;3.746;2023-02-15T07:58:23;4.40;99.90
13328;DHT22;6733;51.044;3.746;2023-02-15T08:01:09;4.50;99.90
13328;DHT22;6733;51.044;3.746;2023-02-15T08:03:35;4.40;99.90
13328;DHT22;6733;51.044;3.746;2023-02-15T08:06:02;4.00;99.90
13328;DHT22;6733;51.044;3.746;2023-02-15T08:08:28;3.80;99.90
13328;DHT22;6733;51.044;3.746;2023-02-15T08:13:46;3.80;99.90
13328;DHT22;6733;51.044;3.746;2023-02-15T08:19:06;3.80;99.90
13328;DHT22;6733;51.044;3.746;2023-02-15T08:21:33;3.80;99.90
13328;DHT22;6733;51.044;3.746;2023-02-15T08:24:01;3.90;99.90
13328;DHT22;6733;51.044;3.746;2023-02-15T08:26:28;4.10;99.90
13328;DHT22;6733;51.044;3.746;2023-02-15T08:28:55;4.20;99.90
13328;DHT22;6733;51.044;3.746;2023-02-15T08:31:22;4.30;99.90
13328;DHT22;6733;51.044;3.746;2023-02-15T08:33:49;4.50;99.90
13328;DHT22;6733;51.044;3.746;2023-02-15T08:36:18;4.60;99.90
13328;DHT22;6733;51.044;3.746;2023-02-15T08:38:45;4.70;99.90
13328;DHT22;6733;51.044;3.746;2023-02-15T08:41:17;4.80;99.90
13328;DHT22;6733;51.044;3.746;2023-02-15T08:43:47;4.90;99.90
13328;DHT22;6733;51.044;3.746;2023-02-15T08:46:15;5.00;99.90
13328;DHT22;6733;51.044;3.746;2023-02-15T08:48:41;5.30;99.90
13328;DHT22;6733;51.044;3.746;2023-02-15T08:51:29;5.50;99.90
13328;DHT22;6733;51.044;3.746;2023-02-15T08:53:58;5.80;99.90
13328;DHT22;6733;51.044;3.746;2023-02-15T08:56:27;6.00;99.90
13328;DHT22;6733;51.044;3.746;2023-02-15T08:58:54;6.20;99.90
13328;DHT22;6733;51.044;3.746;2023-02-15T09:01:22;6.40;99.90
13328;DHT22;6733;51.044;3.746;2023-02-15T09:03:55;6.50;99.90
13328;DHT22;6733;51.044;3.746;2023-02-15T09:06:22;6.60;99.90
13328;DHT22;6733;51.044;3.746;2023-02-15T09:08:49;6.70;99.90
13328;DHT22;6733;51.044;3.746;2023-02-15T09:11:21;6.90;99.90
13328;DHT22;6733;51.044;3.746;2023-02-15T09:14:06;7.00;99.90
13328;DHT22;6733;51.044;3.746;2023-02-15T09:16:34;7.00;99.90
13328;DHT22;6733;51.044;3.746;2023-02-15T09:19:02;7.00;99.90
13328;DHT22;6733;51.044;3.746;2023-02-15T09:21:31;7.10;99.90
13328;DHT22;6733;51.044;3.746;2023-02-15T09:24:00;7.20;99.90
13328;DHT22;6733;51.044;3.746;2023-02-15T09:26:29;7.20;99.90
13328;DHT22;6733;51.044;3.746;2023-02-15T09:28:58;7.30;99.90
13328;DHT22;6733;51.044;3.746;2023-02-15T09:31:31;7.60;99.90
13328;DHT22;6733;51.044;3.746;2023-02-15T09:33:59;7.60;99.90
13328;DHT22;6733;51.044;3.746;2023-02-15T09:36:33;7.60;99.90
13328;DHT22;6733;51.044;3.746;2023-02-15T09:39:12;7.60;99.90
13328;DHT22;6733;51.044;3.746;2023-02-15T09:47:57;7.70;99.90
13328;DHT22;6733;51.044;3.746;2023-02-15T09:55:54;8.00;99.90
13328;DHT22;6733;51.044;3.746;2023-02-15T10:01:10;8.20;99.90
13328;DHT22;6733;51.044;3.746;2023-02-15T10:09:36;8.30;99.90
13328;DHT22;6733;51.044;3.746;2023-02-15T10:20:37;8.80;99.90
13328;DHT22;6733;51.044;3.746;2023-02-15T10:28:19;9.10;99.90
13328;DHT22;6733;51.044;3.746;2023-02-15T10:30:51;9.20;99.90
13328;DHT22;6733;51.044;3.746;2023-02-15T10:34:02;9.10;99.90
13328;DHT22;6733;51.044;3.746;2023-02-15T10:36:27;9.20;99.90
13328;DHT22;6733;51.044;3.746;2023-02-15T10:39:07;9.20;99.90
13328;DHT22;6733;51.044;3.746;2023-02-15T10:50:41;9.60;99.90
13328;DHT22;6733;51.044;3.746;2023-02-15T10:58:56;9.90;99.90
13328;DHT22;6733;51.044;3.746;2023-02-15T11:04:12;10.10;99.90
13328;DHT22;6733;51.044;3.746;2023-02-15T11:06:46;10.30;99.90
13328;DHT22;6733;51.044;3.746;2023-02-15T11:09:15;10.50;99.90
13328;DHT22;6733;51.044;3.746;2023-02-15T11:11:47;10.50;99.90
13328;DHT22;6733;51.044;3.746;2023-02-15T11:14:19;10.70;99.90
13328;DHT22;6733;51.044;3.746;2023-02-15T11:16:50;10.70;99.90
13328;DHT22;6733;51.044;3.746;2023-02-15T11:19:32;10.80;99.90
13328;DHT22;6733;51.044;3.746;2023-02-15T11:22:04;10.70;99.90
13328;DHT22;6733;51.044;3.746;2023-02-15T11:24:36;10.80;99.90
13328;DHT22;6733;51.044;3.746;2023-02-15T11:27:13;10.80;99.90
13328;DHT22;6733;51.044;3.746;2023-02-15T11:37:40;11.50;99.90
13328;DHT22;6733;51.044;3.746;2023-02-15T11:42:46;11.60;99.90
13328;DHT22;6733;51.044;3.746;2023-02-15T11:47:49;11.50;99.90
13328;DHT22;6733;51.044;3.746;2023-02-15T11:50:20;11.60;99.90
13328;DHT22;6733;51.044;3.746;2023-02-15T11:52:51;11.80;99.90
13328;DHT22;6733;51.044;3.746;2023-02-15T11:55:21;12.10;99.90
13328;DHT22;6733;51.044;3.746;2023-02-15T11:58:08;12.30;99.90
13328;DHT22;6733;51.044;3.746;2023-02-15T12:00:39;12.30;99.90
13328;DHT22;6733;51.044;3.746;2023-02-15T12:03:14;12.30;99.90
13328;DHT22;6733;51.044;3.746;2023-02-15T12:05:45;12.40;99.90
13328;DHT22;6733;51.044;3.746;2023-02-15T12:08:19;12.50;99.90
13328;DHT22;6733;51.044;3.746;2023-02-15T12:11:05;12.50;99.90
13328;DHT22;6733;51.044;3.746;2023-02-15T12:13:33;12.70;99.90
13328;DHT22;6733;51.044;3.746;2023-02-15T12:16:05;12.50;99.90
13328;DHT22;6733;51.044;3.746;2023-02-15T12:18:40;12.40;99.90
13328;DHT22;6733;51.044;3.746;2023-02-15T12:23:52;12.50;99.90
13328;DHT22;6733;51.044;3.746;2023-02-15T12:26:30;12.50;99.90
13328;DHT22;6733;51.044;3.746;2023-02-15T12:29:01;12.40;99.90
13328;DHT22;6733;51.044;3.746;2023-02-15T12:31:40;12.40;99.90
13328;DHT22;6733;51.044;3.746;2023-02-15T12:34:32;12.50;99.90
13328;DHT22;6733;51.044;3.746;2023-02-15T12:40:20;12.70;99.90
13328;DHT22;6733;51.044;3.746;2023-02-15T12:42:47;12.50;99.90
13328;DHT22;6733;51.044;3.746;2023-02-15T12:45:25;12.70;99.90
13328;DHT22;6733;51.044;3.746;2023-02-15T12:48:15;12.60;99.90
13328;DHT22;6733;51.044;3.746;2023-02-15T12:50:54;12.60;99.90
13328;DHT22;6733;51.044;3.746;2023-02-15T12:53:33;12.60;99.90
13328;DHT22;6733;51.044;3.746;2023-02-15T12:56:05;12.60;99.90
13328;DHT22;6733;51.044;3.746;2023-02-15T12:58:36;12.60;99.90
13328;DHT22;6733;51.044;3.746;2023-02-15T13:01:16;12.60;99.90
13328;DHT22;6733;51.044;3.746;2023-02-15T13:04:05;12.70;99.90
13328;DHT22;6733;51.044;3.746;2023-02-15T13:06:36;12.60;99.90
13328;DHT22;6733;51.044;3.746;2023-02-15T13:09:41;12.40;99.90
13328;DHT22;6733;51.044;3.746;2023-02-15T13:12:17;12.10;99.90
13328;DHT22;6733;51.044;3.746;2023-02-15T13:14:48;12.20;99.90
13328;DHT22;6733;51.044;3.746;2023-02-15T13:17:40;12.50;99.90
13328;DHT22;6733;51.044;3.746;2023-02-15T13:20:22;12.50;99.90
13328;DHT22;6733;51.044;3.746;2023-02-15T13:23:03;12.70;99.90
13328;DHT22;6733;51.044;3.746;2023-02-15T13:25:39;12.70;99.90
13328;DHT22;6733;51.044;3.746;2023-02-15T13:28:11;12.50;99.90
13328;DHT22;6733;51.044;3.746;2023-02-15T13:30:44;12.60;99.90
13328;DHT22;6733;51.044;3.746;2023-02-15T13:33:22;12.40;99.90
13328;DHT22;6733;51.044;3.746;2023-02-15T13:38:55;12.60;99.90
13328;DHT22;6733;51.044;3.746;2023-02-15T13:41:43;12.50;99.90
13328;DHT22;6733;51.044;3.746;2023-02-15T13:47:26;12.50;99.90
13328;DHT22;6733;51.044;3.746;2023-02-15T13:52:38;12.70;99.90
13328;DHT22;6733;51.044;3.746;2023-02-15T13:58:04;12.70;99.90
13328;DHT22;6733;51.044;3.746;2023-02-15T14:11:31;12.70;99.90
13328;DHT22;6733;51.044;3.746;2023-02-15T14:17:23;13.00;99.90
13328;DHT22;6733;51.044;3.746;2023-02-15T14:20:17;13.30;99.90
13328;DHT22;6733;51.044;3.746;2023-02-15T14:25:42;13.00;99.90
13328;DHT22;6733;51.044;3.746;2023-02-15T14:31:09;12.80;99.90
13328;DHT22;6733;51.044;3.746;2023-02-15T14:33:40;12.90;99.90
13328;DHT22;6733;51.044;3.746;2023-02-15T14:36:18;13.10;99.90
13328;DHT22;6733;51.044;3.746;2023-02-15T14:42:41;13.10;99.90
13328;DHT22;6733;51.044;3.746;2023-02-15T14:48:08;14.40;99.90
13328;DHT22;6733;51.044;3.746;2023-02-15T14:50:42;14.10;99.90
13328;DHT22;6733;51.044;3.746;2023-02-15T14:55:42;14.10;99.90
13328;DHT22;6733;51.044;3.746;2023-02-15T14:58:12;14.20;99.90
13328;DHT22;6733;51.044;3.746;2023-02-15T15:00:40;14.00;99.90
13328;DHT22;6733;51.044;3.746;2023-02-15T15:03:21;13.20;99.90
13328;DHT22;6733;51.044;3.746;2023-02-15T15:05:54;12.90;99.90
13328;DHT22;6733;51.044;3.746;2023-02-15T15:08:32;12.80;99.90
13328;DHT22;6733;51.044;3.746;2023-02-15T15:19:12;12.20;99.90
13328;DHT22;6733;51.044;3.746;2023-02-15T15:22:03;12.20;99.90
13328;DHT22;6733;51.044;3.746;2023-02-15T15:27:44;12.00;99.90
13328;DHT22;6733;51.044;3.746;2023-02-15T15:32:46;12.20;99.90
13328;DHT22;6733;51.044;3.746;2023-02-15T15:47:12;11.80;99.90
13328;DHT22;6733;51.044;3.746;2023-02-15T15:49:42;11.70;99.90
13328;DHT22;6733;51.044;3.746;2023-02-15T15:52:15;11.80;99.90
13328;DHT22;6733;51.044;3.746;2023-02-15T15:54:42;11.70;99.90
13328;DHT22;6733;51.044;3.746;2023-02-15T15:57:31;11.80;99.90
13328;DHT22;6733;51.044;3.746;2023-02-15T15:59:58;11.90;99.90
13328;DHT22;6733;51.044;3.746;2023-02-15T16:02:26;12.00;99.90
13328;DHT22;6733;51.044;3.746;2023-02-15T16:04:52;11.90;99.90
13328;DHT22;6733;51.044;3.746;2023-02-15T16:07:21;11.70;99.90
13328;DHT22;6733;51.044;3.746;2023-02-15T16:10:02;11.60;99.90
13328;DHT22;6733;51.044;3.746;2023-02-15T16:12:32;11.50;99.90
13328;DHT22;6733;51.044;3.746;2023-02-15T16:15:13;11.50;99.90
13328;DHT22;6733;51.044;3.746;2023-02-15T16:17:42;11.40;99.90
13328;DHT22;6733;51.044;3.746;2023-02-15T16:20:18;11.40;99.90
13328;DHT22;6733;51.044;3.746;2023-02-15T16:22:47;11.40;99.90
13328;DHT22;6733;51.044;3.746;2023-02-15T16:27:50;11.20;99.90
13328;DHT22;6733;51.044;3.746;2023-02-15T16:30:27;11.20;99.90
13328;DHT22;6733;51.044;3.746;2023-02-15T16:35:31;11.10;99.90
13328;DHT22;6733;51.044;3.746;2023-02-15T16:37:57;11.10;99.90
13328;DHT22;6733;51.044;3.746;2023-02-15T16:40:32;11.10;99.90
13328;DHT22;6733;51.044;3.746;2023-02-15T16:43:04;11.00;99.90
13328;DHT22;6733;51.044;3.746;2023-02-15T16:45:32;11.00;99.90
13328;DHT22;6733;51.044;3.746;2023-02-15T16:48:01;11.00;99.90
13328;DHT22;6733;51.044;3.746;2023-02-15T16:50:33;10.90;99.90
13328;DHT22;6733;51.044;3.746;2023-02-15T16:53:01;10.90;99.90
13328;DHT22;6733;51.044;3.746;2023-02-15T16:55:37;10.90;99.90
13328;DHT22;6733;51.044;3.746;2023-02-15T16:58:06;10.90;99.90
13328;DHT22;6733;51.044;3.746;2023-02-15T17:00:36;10.80;99.90
13328;DHT22;6733;51.044;3.746;2023-02-15T17:03:20;10.80;99.90
13328;DHT22;6733;51.044;3.746;2023-02-15T17:05:58;10.80;99.90
13328;DHT22;6733;51.044;3.746;2023-02-15T17:08:33;10.80;99.90
13328;DHT22;6733;51.044;3.746;2023-02-15T17:11:04;10.70;99.90
13328;DHT22;6733;51.044;3.746;2023-02-15T17:13:31;10.60;99.90
13328;DHT22;6733;51.044;3.746;2023-02-15T17:18:46;10.50;99.90
13328;DHT22;6733;51.044;3.746;2023-02-15T17:21:17;10.50;99.90
13328;DHT22;6733;51.044;3.746;2023-02-15T17:23:49;10.40;99.90
13328;DHT22;6733;51.044;3.746;2023-02-15T17:26:37;10.40;99.90
13328;DHT22;6733;51.044;3.746;2023-02-15T17:29:17;10.40;99.90
13328;DHT22;6733;51.044;3.746;2023-02-15T17:31:48;10.30;99.90
13328;DHT22;6733;51.044;3.746;2023-02-15T17:34:46;10.20;99.90
13328;DHT22;6733;51.044;3.746;2023-02-15T17:37:24;10.20;99.90
13328;DHT22;6733;51.044;3.746;2023-02-15T17:39:50;10.30;99.90
13328;DHT22;6733;51.044;3.746;2023-02-15T17:42:17;10.20;99.90
13328;DHT22;6733;51.044;3.746;2023-02-15T17:44:43;10.30;99.90
13328;DHT22;6733;51.044;3.746;2023-02-15T17:47:18;10.30;99.90
13328;DHT22;6733;51.044;3.746;2023-02-15T17:49:45;10.30;99.90
13328;DHT22;6733;51.044;3.746;2023-02-15T17:52:15;10.30;99.90
13328;DHT22;6733;51.044;3.746;2023-02-15T17:54:42;10.30;99.90
13328;DHT22;6733;51.044;3.746;2023-02-15T17:57:28;10.30;99.90
13328;DHT22;6733;51.044;3.746;2023-02-15T17:59:55;10.30;99.90
13328;DHT22;6733;51.044;3.746;2023-02-15T18:02:40;10.30;99.90
13328;DHT22;6733;51.044;3.746;2023-02-15T18:05:25;10.30;99.90
13328;DHT22;6733;51.044;3.746;2023-02-15T18:08:14;10.30;99.90
13328;DHT22;6733;51.044;3.746;2023-02-15T18:11:00;10.30;99.90
13328;DHT22;6733;51.044;3.746;2023-02-15T18:13:46;10.20;99.90
13328;DHT22;6733;51.044;3.746;2023-02-15T18:16:19;10.20;99.90
13328;DHT22;6733;51.044;3.746;2023-02-15T18:18:46;10.20;99.90
13328;DHT22;6733;51.044;3.746;2023-02-15T18:21:12;10.20;99.90
13328;DHT22;6733;51.044;3.746;2023-02-15T18:23:39;10.20;99.90
13328;DHT22;6733;51.044;3.746;2023-02-15T18:26:10;10.20;99.90
13328;DHT22;6733;51.044;3.746;2023-02-15T18:28:37;10.20;99.90
13328;DHT22;6733;51.044;3.746;2023-02-15T18:31:04;10.20;99.90
13328;DHT22;6733;51.044;3.746;2023-02-15T18:33:37;10.20;99.90
13328;DHT22;6733;51.044;3.746;2023-02-15T18:36:06;10.20;99.90
13328;DHT22;6733;51.044;3.746;2023-02-15T18:38:33;10.20;99.90
13328;DHT22;6733;51.044;3.746;2023-02-15T18:41:01;10.10;99.90
13328;DHT22;6733;51.044;3.746;2023-02-15T18:43:28;10.10;99.90
13328;DHT22;6733;51.044;3.746;2023-02-15T18:45:55;10.10;99.90
13328;DHT22;6733;51.044;3.746;2023-02-15T18:48:21;10.10;99.90
13328;DHT22;6733;51.044;3.746;2023-02-15T18:50:47;10.00;99.90
13328;DHT22;6733;51.044;3.746;2023-02-15T18:53:18;10.10;99.90
13328;DHT22;6733;51.044;3.746;2023-02-15T18:55:45;10.00;99.90
13328;DHT22;6733;51.044;3.746;2023-02-15T18:58:17;10.00;99.90
13328;DHT22;6733;51.044;3.746;2023-02-15T19:00:44;10.00;99.90
13328;DHT22;6733;51.044;3.746;2023-02-15T19:03:14;9.90;99.90
13328;DHT22;6733;51.044;3.746;2023-02-15T19:05:43;9.90;99.90
13328;DHT22;6733;51.044;3.746;2023-02-15T19:08:21;9.90;99.90
13328;DHT22;6733;51.044;3.746;2023-02-15T19:10:52;9.80;99.90
13328;DHT22;6733;51.044;3.746;2023-02-15T19:13:18;9.80;99.90
13328;DHT22;6733;51.044;3.746;2023-02-15T19:15:44;9.80;99.90
13328;DHT22;6733;51.044;3.746;2023-02-15T19:18:10;9.70;99.90
13328;DHT22;6733;51.044;3.746;2023-02-15T19:23:06;9.70;99.90
13328;DHT22;6733;51.044;3.746;2023-02-15T19:25:34;9.60;99.90
13328;DHT22;6733;51.044;3.746;2023-02-15T19:28:17;9.60;99.90
13328;DHT22;6733;51.044;3.746;2023-02-15T19:30:44;9.60;99.90
13328;DHT22;6733;51.044;3.746;2023-02-15T19:33:15;9.60;99.90
13328;DHT22;6733;51.044;3.746;2023-02-15T19:35:43;9.50;99.90
13328;DHT22;6733;51.044;3.746;2023-02-15T19:38:16;9.50;99.90
13328;DHT22;6733;51.044;3.746;2023-02-15T19:40:43;9.50;99.90